Time;durP1;ratioP1;P1;durP2;ratioP2;P2;SDS_P1;SDS_P2;PMS_P1;PMS_P2;Temp;Humidity;BMP_temperature;BMP_pressure;BME280_temperature;BME280_humidity;BME280_pressure;Samples;Min_cycle;Max_cycle;Signal;HPM_P1;HPM_P2
2023/02/28 00:14:12;;;;;;;4.37;2.63;;;;;;;6.31;100.00;100759.53;31376078;28;20418;-81
2023/02/28 00:29:14;;;;;;;7.83;2.37;;;;;;;6.76;100.00;100789.91;31371967;28;20103;-80
2023/02/28 00:44:17;;;;;;;3.97;2.60;;;;;;;6.04;100.00;100798.56;31351522;28;20056;-80
2023/02/28 00:59:19;;;;;;;4.13;2.90;;;;;;;5.64;100.00;100791.19;31356290;28;20079;-79
2023/02/28 01:14:21;;;;;;;4.53;2.80;;;;;;;5.52;100.00;100794.88;31369943;28;20057;-78
2023/02/28 01:29:23;;;;;;;4.90;3.10;;;;;;;5.93;100.00;100803.06;31356244;28;20414;-78
2023/02/28 01:45:01;;;;;;;6.17;3.37;;;;;;;5.50;100.00;100802.56;31361778;28;20320;-79
2023/02/28 02:00:14;;;;;;;9.77;4.87;;;;;;;5.35;100.00;100822.38;31356256;28;20506;-79
2023/02/28 02:15:27;;;;;;;12.83;5.37;;;;;;;5.53;100.00;100861.06;31386069;28;20057;-78
2023/02/28 02:30:48;;;;;;;14.63;6.87;;;;;;;5.54;100.00;100889.56;31380391;28;20045;-79
2023/02/28 02:45:59;;;;;;;15.47;8.03;;;;;;;5.42;100.00;100925.59;31365024;28;20514;-78
2023/02/28 03:01:03;;;;;;;19.57;7.70;;;;;;;5.22;100.00;100926.78;31376980;28;20494;-79
2023/02/28 03:16:12;;;;;;;26.00;10.60;;;;;;;5.51;100.00;100949.53;31376031;28;20083;-78
2023/02/28 03:31:25;;;;;;;28.03;12.00;;;;;;;5.51;100.00;100971.09;31376366;28;20053;-80
2023/02/28 03:46:34;;;;;;;28.67;11.00;;;;;;;4.95;100.00;100971.75;31366733;28;20056;-79
2023/02/28 04:01:42;;;;;;;31.83;11.23;;;;;;;5.19;100.00;100997.53;31369087;28;20045;-80
2023/02/28 04:16:45;;;;;;;35.87;13.63;;;;;;;5.34;100.00;101003.91;31367844;28;20049;-80
2023/02/28 04:31:47;;;;;;;30.07;12.70;;;;;;;4.52;100.00;101007.06;31344857;28;20033;-73
2023/02/28 04:46:50;;;;;;;36.57;13.87;;;;;;;4.52;100.00;101020.50;31332551;28;20053;-73
2023/02/28 05:01:51;;;;;;;33.90;13.27;;;;;;;4.38;100.00;101056.75;31324138;28;20103;-73
2023/02/28 05:16:53;;;;;;;33.67;14.03;;;;;;;4.43;100.00;101067.22;31325063;28;20049;-74
2023/02/28 05:31:55;;;;;;;30.13;12.73;;;;;;;4.50;100.00;101084.63;31331951;28;20475;-73
2023/02/28 05:46:59;;;;;;;38.90;15.60;;;;;;;4.56;100.00;101100.13;31372068;28;20148;-73
2023/02/28 06:02:01;;;;;;;33.33;13.23;;;;;;;4.59;100.00;101114.78;31359544;28;20119;-79
2023/02/28 06:17:03;;;;;;;36.37;14.90;;;;;;;4.76;100.00;101128.59;31362515;28;20509;-80
2023/02/28 06:32:06;;;;;;;39.03;15.23;;;;;;;4.88;100.00;101153.81;31366439;28;20045;-81
2023/02/28 06:47:08;;;;;;;37.97;16.17;;;;;;;5.18;100.00;101151.31;31369743;28;20103;-80
2023/02/28 07:02:10;;;;;;;36.17;14.13;;;;;;;5.23;100.00;101153.69;31397465;28;20410;-80
2023/02/28 07:17:12;;;;;;;32.03;14.23;;;;;;;5.14;100.00;101173.56;31369419;28;20049;-73
2023/02/28 07:32:14;;;;;;;35.27;13.67;;;;;;;5.38;100.00;101169.00;31345902;28;20049;-74
2023/02/28 07:47:16;;;;;;;26.80;12.67;;;;;;;6.12;100.00;101156.03;31351699;28;20041;-76
2023/02/28 08:02:18;;;;;;;24.17;10.50;;;;;;;6.69;100.00;101160.31;31337633;28;20502;-74
2023/02/28 08:17:20;;;;;;;21.30;9.50;;;;;;;6.75;100.00;101171.56;31346710;28;20041;-76
2023/02/28 08:32:22;;;;;;;20.13;7.97;;;;;;;6.99;100.00;101181.88;31361972;28;20479;-76
2023/02/28 08:47:30;;;;;;;12.23;6.13;;;;;;;7.04;100.00;101205.09;31342450;28;20139;-77
2023/02/28 09:02:32;;;;;;;15.27;7.47;;;;;;;6.84;100.00;101202.53;31360755;28;20106;-77
2023/02/28 09:17:34;;;;;;;14.10;6.27;;;;;;;7.10;100.00;101209.00;31360626;28;20123;-85
2023/02/28 09:32:36;;;;;;;11.20;5.97;;;;;;;6.90;100.00;101235.38;31355550;28;20048;-83
2023/02/28 09:47:47;;;;;;;13.10;6.00;;;;;;;7.72;100.00;101239.81;31368904;28;20053;-84
2023/02/28 10:03:17;;;;;;;23.23;9.60;;;;;;;7.39;100.00;101247.94;31372861;28;20053;-87
2023/02/28 10:18:25;;;;;;;30.27;13.13;;;;;;;7.48;100.00;101230.31;31376479;28;20049;-82
2023/02/28 10:33:34;;;;;;;34.83;12.60;;;;;;;7.38;100.00;101197.75;31390870;28;20565;-76
2023/02/28 10:48:44;;;;;;;33.80;15.73;;;;;;;7.84;100.00;101193.56;31374529;28;20045;-87
2023/02/28 11:03:50;;;;;;;41.80;17.17;;;;;;;7.95;100.00;101192.91;31407768;28;20048;-83
2023/02/28 11:18:55;;;;;;;;;;;;;;;7.93;100.00;101181.69;31366832;28;20414;-72
2023/02/28 11:33:57;;;;;;;17.60;8.73;;;;;;;8.69;100.00;101173.72;31381715;28;20378;-72
2023/02/28 11:49:35;;;;;;;66.73;27.97;;;;;;;9.09;100.00;101176.22;31355909;28;20052;-73
2023/02/28 12:05:11;;;;;;;13.50;6.80;;;;;;;8.29;100.00;101158.38;31355987;28;20075;-74
2023/02/28 12:20:19;;;;;;;12.43;7.43;;;;;;;8.40;100.00;101157.31;31349566;28;20151;-74
2023/02/28 12:35:55;;;;;;;13.50;6.07;;;;;;;8.50;100.00;101164.72;31353141;28;20052;-76
2023/02/28 12:50:59;;;;;;;9.50;5.60;;;;;;;7.53;100.00;101156.25;31367761;28;20053;-71
2023/02/28 13:06:06;;;;;;;;;;;;;;;7.08;100.00;101152.69;31340959;28;20398;-73
2023/02/28 13:21:23;;;;;;;9.60;5.67;;;;;;;6.98;100.00;101142.53;31341782;28;20298;-74
2023/02/28 13:36:29;;;;;;;8.27;4.97;;;;;;;7.29;100.00;101132.47;31333272;28;20098;-74
2023/02/28 13:51:44;;;;;;;11.40;5.57;;;;;;;7.28;100.00;101134.38;31371055;28;20040;-73
2023/02/28 14:06:50;;;;;;;8.87;5.10;;;;;;;6.98;100.00;101131.75;31386544;28;20059;-81
2023/02/28 14:22:01;;;;;;;;;;;;;;;6.82;100.00;101134.66;31355505;28;20137;-80
2023/02/28 14:37:05;;;;;;;16.83;6.87;;;;;;;6.71;100.00;101132.94;31368764;28;20404;-82
2023/02/28 14:52:15;;;;;;;13.13;6.00;;;;;;;6.40;100.00;101118.69;31329576;28;20055;-76
2023/02/28 15:07:17;;;;;;;12.87;6.17;;;;;;;6.39;100.00;101119.81;31346839;28;20060;-75
2023/02/28 15:22:29;;;;;;;10.93;6.10;;;;;;;6.19;100.00;101102.22;31360281;28;20056;-76
2023/02/28 15:37:56;;;;;;;8.27;5.07;;;;;;;5.87;100.00;101115.19;31347428;28;20095;-81
2023/02/28 15:53:00;;;;;;;8.43;5.67;;;;;;;5.77;100.00;101124.66;31352968;28;20435;-79
2023/02/28 16:08:13;;;;;;;13.03;7.07;;;;;;;5.53;100.00;101130.41;31353923;28;20045;-79
2023/02/28 16:23:15;;;;;;;12.80;7.13;;;;;;;5.30;100.00;101148.47;31364097;28;20473;-75
2023/02/28 16:38:17;;;;;;;12.97;7.53;;;;;;;4.95;100.00;101141.28;31374241;28;20045;-78
2023/02/28 16:53:21;;;;;;;14.40;7.23;;;;;;;4.72;100.00;101140.44;31337861;28;20064;-79
2023/02/28 17:08:23;;;;;;;10.17;5.87;;;;;;;4.54;100.00;101136.56;31342699;28;20045;-73
2023/02/28 17:23:26;;;;;;;14.63;6.40;;;;;;;4.20;100.00;101130.06;31336607;28;20053;-73
2023/02/28 17:38:29;;;;;;;14.20;6.10;;;;;;;4.19;100.00;101131.19;31318226;28;20049;-73
2023/02/28 17:53:31;;;;;;;9.10;4.40;;;;;;;3.89;100.00;101142.41;31336583;28;20074;-75
2023/02/28 18:08:35;;;;;;;11.20;5.53;;;;;;;4.05;100.00;101150.44;31330172;28;20052;-74
2023/02/28 18:23:37;;;;;;;8.67;4.40;;;;;;;3.94;100.00;101144.84;31328189;28;20053;-75
2023/02/28 18:38:39;;;;;;;8.90;4.43;;;;;;;3.80;100.00;101141.00;31330328;28;20145;-80
2023/02/28 18:53:42;;;;;;;10.10;5.23;;;;;;;3.77;100.00;101150.56;31371099;28;20106;-85
2023/02/28 19:08:44;;;;;;;8.20;4.67;;;;;;;3.60;100.00;101140.91;31383973;28;20768;-80
2023/02/28 19:23:47;;;;;;;9.00;5.13;;;;;;;3.14;100.00;101155.81;31345651;28;20486;-77
2023/02/28 19:38:50;;;;;;;16.40;7.97;;;;;;;2.88;100.00;101155.47;31344383;28;20122;-74
2023/02/28 19:53:52;;;;;;;14.63;8.27;;;;;;;2.93;100.00;101145.28;31340210;28;20057;-76
2023/02/28 20:08:55;;;;;;;19.03;10.00;;;;;;;2.84;100.00;101136.59;31318223;28;20061;-74
2023/02/28 20:23:56;;;;;;;14.40;8.53;;;;;;;2.77;100.00;101127.59;31337093;28;20045;-76
2023/02/28 20:38:59;;;;;;;21.77;9.70;;;;;;;2.72;100.00;101113.28;31345107;28;20111;-74
2023/02/28 20:54:01;;;;;;;21.50;9.60;;;;;;;2.63;100.00;101109.19;31341783;28;20056;-75
2023/02/28 21:09:08;;;;;;;21.77;10.17;;;;;;;2.63;100.00;101103.81;31333782;28;20057;-74
2023/02/28 21:24:12;;;;;;;23.00;10.87;;;;;;;2.65;100.00;101112.31;31319423;28;20061;-74
2023/02/28 21:39:17;;;;;;;30.73;12.20;;;;;;;2.81;100.00;101099.75;31316701;28;20076;-74
2023/02/28 21:54:20;;;;;;;39.97;15.57;;;;;;;2.77;100.00;101093.50;31308845;28;20053;-74
2023/02/28 22:09:22;;;;;;;42.17;15.80;;;;;;;2.92;100.00;101073.22;31323648;28;20061;-73
2023/02/28 22:24:24;;;;;;;37.20;15.03;;;;;;;2.79;100.00;101040.31;31341255;28;20497;-73
2023/02/28 22:39:26;;;;;;;28.33;12.90;;;;;;;2.63;100.00;101023.41;31366418;28;20083;-76
2023/02/28 22:54:28;;;;;;;26.40;14.03;;;;;;;2.73;100.00;101023.69;31359851;28;20058;-74
2023/02/28 23:09:30;;;;;;;28.60;11.73;;;;;;;2.73;100.00;101012.97;31357791;28;20057;-74
2023/02/28 23:24:34;;;;;;;27.53;11.03;;;;;;;2.70;100.00;101008.28;31343716;28;20107;-74
2023/02/28 23:39:36;;;;;;;25.97;10.60;;;;;;;2.62;100.00;100989.66;31355491;28;20056;-74
2023/02/28 23:54:38;;;;;;;28.57;12.87;;;;;;;2.45;100.00;100969.31;31368564;28;20491;-72
